Startpagina
METAR-TAF:

METAR-TAF

Vliegvelden :

Aéroport de Biarritz-Anglet-Bayonne

Biarritz, Frankrijk

breedte: 43-28N, lengte: 001-32W, hoogte: 75 m

Actueel weer

Dit bericht is 27 minuten geleden gemaakt, om 01:30 UTC
Wind 7 kt uit het zuiden, variërend tussen het zuidoosten en het zuidzuidwesten
Temperatuur 11°C
Vochtigheid 66%
Druk 1019 hPa
Zicht 10 km of meer
geen wolken onder 1500 m en geen cumulonimbus

METAR: LFBZ 240130Z AUTO 17007KT 140V210 CAVOK 11/05 Q1019 NOSIG

Tijdstip: 02:57 (01:57 UTC)

Verwachting

Dit bericht is 2 uur en het 57 minuten geleden gemaakt, om 23:00 UTC
Verwachting geldig van 24 om 00 UTC tot 24 om 24 UTC
Wind 7 kt uit het zuiden
Zicht 10 km of meer
geen wolken onder 1500 m en geen cumulonimbus

TAF: LFBZ 232300Z 2400/2424 18007KT CAVOK

Waarnemingen en weersverwachtingen van meer dan 4000 vliegvelden (METAR en TAF).

De beschikbare stations zijn de gele en rode punten op de kaart.

Ga met uw muis naar het station om de naam te zien.

Klik dan om waarnemingen en weersverwachtingen te zien.

kaart wijzigen: klik op de groene knoppen met een zwart kruis om in te zoomen, op de groene knop met een streepje om uit te zoomen of op de groene pijlen voor aangrenzende kaarten.


METAR-TAF: